createdAt,value
2022-11-25T00:01:33.680Z,42.80
2022-11-25T00:04:02.174Z,48.97
2022-11-25T00:06:32.818Z,43.97
2022-11-25T00:09:12.641Z,55.47
2022-11-25T00:11:42.536Z,48.42
2022-11-25T00:14:15.162Z,58.38
2022-11-25T00:16:48.035Z,50.58
2022-11-25T00:19:17.235Z,51.03
2022-11-25T00:21:45.581Z,42.00
2022-11-25T00:24:15.049Z,41.78
2022-11-25T00:26:42.871Z,49.35
2022-11-25T00:29:12.154Z,51.20
2022-11-25T00:31:41.130Z,52.60
2022-11-25T00:34:13.505Z,41.42
2022-11-25T00:36:41.427Z,51.38
2022-11-25T00:39:14.933Z,66.70
2022-11-25T00:42:02.741Z,58.25
2022-11-25T00:44:38.086Z,52.55
2022-11-25T00:47:08.773Z,50.42
2022-11-25T00:49:37.353Z,46.72
2022-11-25T00:52:05.104Z,49.65
2022-11-25T00:54:34.003Z,43.53
2022-11-25T00:57:02.314Z,49.63
2022-11-25T00:59:30.929Z,38.15
2022-11-25T01:02:00.270Z,36.45
2022-11-25T01:04:27.942Z,46.92
2022-11-25T01:06:56.974Z,39.03
2022-11-25T01:09:25.571Z,37.58
2022-11-25T01:11:53.424Z,30.52
2022-11-25T01:14:22.684Z,35.83
2022-11-25T01:16:52.281Z,34.55
2022-11-25T01:19:20.218Z,32.35
2022-11-25T01:21:47.911Z,32.15
2022-11-25T01:24:16.854Z,27.73
2022-11-25T01:26:45.340Z,32.75
2022-11-25T01:29:15.994Z,29.85
2022-11-25T01:31:45.572Z,27.77
2022-11-25T01:34:22.097Z,27.20
2022-11-25T01:36:49.978Z,28.10
2022-11-25T01:39:25.597Z,27.65
2022-11-25T01:41:58.214Z,25.02
2022-11-25T01:44:31.365Z,29.92
2022-11-25T01:47:25.666Z,30.10
2022-11-25T01:50:03.652Z,26.17
2022-11-25T01:52:36.701Z,34.08
2022-11-25T01:55:15.881Z,30.03
2022-11-25T01:57:54.946Z,28.67
2022-11-25T02:00:25.706Z,46.88
2022-11-25T02:02:55.459Z,29.75
2022-11-25T02:05:34.058Z,33.00
2022-11-25T02:08:02.798Z,33.70
2022-11-25T02:10:32.734Z,29.90
2022-11-25T02:13:00.851Z,26.17
2022-11-25T02:15:31.463Z,29.60
2022-11-25T02:17:59.233Z,27.52
2022-11-25T02:20:27.956Z,31.63
2022-11-25T02:23:16.976Z,36.25
2022-11-25T02:25:47.905Z,32.40
2022-11-25T02:28:30.566Z,34.80
2022-11-25T02:30:59.140Z,35.90
2022-11-25T02:33:27.955Z,42.28
2022-11-25T02:36:00.037Z,44.35
2022-11-25T02:38:40.919Z,37.40
2022-11-25T02:41:16.469Z,42.22
2022-11-25T02:43:47.286Z,38.40
2022-11-25T02:46:21.878Z,38.10
2022-11-25T02:49:09.900Z,35.92
2022-11-25T02:51:41.383Z,46.30
2022-11-25T02:54:11.077Z,41.22
2022-11-25T02:56:40.268Z,43.30
2022-11-25T02:59:09.622Z,41.60
2022-11-25T03:01:39.534Z,41.30
2022-11-25T03:04:09.528Z,48.67
2022-11-25T03:06:37.255Z,41.15
2022-11-25T03:09:04.885Z,47.00
2022-11-25T03:11:51.344Z,38.75
2022-11-25T03:14:21.293Z,33.75
2022-11-25T03:16:49.116Z,39.10
2022-11-25T03:19:17.206Z,40.72
2022-11-25T03:21:45.382Z,36.83
2022-11-25T03:24:12.907Z,39.75
2022-11-25T03:26:40.610Z,33.88
2022-11-25T03:29:08.886Z,31.98
2022-11-25T03:31:36.822Z,34.08
2022-11-25T03:34:04.424Z,41.47
2022-11-25T03:36:32.163Z,36.05
2022-11-25T03:39:00.107Z,36.20
2022-11-25T03:41:29.027Z,32.95
2022-11-25T03:43:58.016Z,33.00
2022-11-25T03:46:26.170Z,36.90
2022-11-25T03:48:55.496Z,34.38
2022-11-25T03:51:24.125Z,35.42
2022-11-25T03:53:53.066Z,29.48
2022-11-25T03:56:20.832Z,40.78
2022-11-25T03:58:48.426Z,34.15
2022-11-25T04:01:16.899Z,37.10
2022-11-25T04:03:45.830Z,49.80
2022-11-25T04:06:14.518Z,40.35
2022-11-25T04:08:42.961Z,33.38
2022-11-25T04:11:11.491Z,30.88
2022-11-25T04:13:44.363Z,35.65
2022-11-25T04:16:30.386Z,38.08
2022-11-25T04:18:57.944Z,37.50
2022-11-25T04:21:26.219Z,42.00
2022-11-25T04:23:54.355Z,33.88
2022-11-25T04:26:22.256Z,43.00
2022-11-25T04:28:52.638Z,38.95
2022-11-25T04:31:21.292Z,34.97
2022-11-25T04:33:52.556Z,41.65
2022-11-25T04:36:24.184Z,43.38
2022-11-25T04:38:52.193Z,43.63
2022-11-25T04:41:22.719Z,37.58
2022-11-25T04:43:50.728Z,38.72
2022-11-25T04:46:23.094Z,36.25
2022-11-25T04:48:51.816Z,34.67
2022-11-25T04:51:20.725Z,35.22
2022-11-25T04:53:53.189Z,32.65
2022-11-25T04:56:23.265Z,37.92
2022-11-25T04:59:12.279Z,37.53
2022-11-25T05:01:44.812Z,33.55
2022-11-25T05:04:28.920Z,38.60
2022-11-25T05:06:57.085Z,36.00
2022-11-25T05:09:25.877Z,33.20
2022-11-25T05:12:29.786Z,38.05
2022-11-25T05:14:59.073Z,34.30
2022-11-25T05:17:30.162Z,34.58
2022-11-25T05:19:58.997Z,38.67
2022-11-25T05:22:30.082Z,38.63
2022-11-25T05:24:58.439Z,40.33
2022-11-25T05:27:27.686Z,35.55
2022-11-25T05:29:57.864Z,33.33
2022-11-25T05:32:25.974Z,33.10
2022-11-25T05:34:57.353Z,30.88
2022-11-25T05:37:25.666Z,37.55
2022-11-25T05:40:03.723Z,32.42
2022-11-25T05:42:34.368Z,35.95
2022-11-25T05:45:05.854Z,40.45
2022-11-25T05:47:36.769Z,42.13
2022-11-25T05:50:06.606Z,36.30
2022-11-25T05:52:34.588Z,39.00
2022-11-25T05:55:02.632Z,36.58
2022-11-25T05:57:31.336Z,37.58
2022-11-25T06:00:07.407Z,41.05
2022-11-25T06:02:51.567Z,41.58
2022-11-25T06:05:20.763Z,37.78
2022-11-25T06:07:49.332Z,39.67
2022-11-25T06:10:17.979Z,38.58
2022-11-25T06:12:45.767Z,39.88
2022-11-25T06:15:15.516Z,36.75
2022-11-25T06:17:43.404Z,41.00
2022-11-25T06:20:17.446Z,35.72
2022-11-25T06:22:46.477Z,41.70
2022-11-25T06:25:14.230Z,41.65
2022-11-25T06:28:11.336Z,36.97
2022-11-25T06:30:31.202Z,43.92
2022-11-25T06:33:14.706Z,41.85
2022-11-25T06:35:45.928Z,46.05
2022-11-25T06:38:13.453Z,47.42
2022-11-25T06:40:40.987Z,36.85
2022-11-25T06:43:08.569Z,43.13
2022-11-25T06:45:36.106Z,39.42
2022-11-25T06:48:04.549Z,50.42
2022-11-25T06:50:33.248Z,41.10
2022-11-25T06:53:01.965Z,43.25
2022-11-25T06:55:30.016Z,40.85
2022-11-25T06:58:13.920Z,43.63
2022-11-25T07:00:45.699Z,44.70
2022-11-25T07:03:13.725Z,41.65
2022-11-25T07:05:41.338Z,38.97
2022-11-25T07:08:09.287Z,42.55
2022-11-25T07:10:36.940Z,42.65
2022-11-25T07:13:04.802Z,45.05
2022-11-25T07:15:34.825Z,38.78
2022-11-25T07:18:02.455Z,39.53
2022-11-25T07:20:30.789Z,41.78
2022-11-25T07:22:58.812Z,37.88
2022-11-25T07:25:30.706Z,42.40
2022-11-25T07:27:59.819Z,42.45
2022-11-25T07:31:21.754Z,41.80
2022-11-25T07:33:15.304Z,34.08
2022-11-25T07:35:43.020Z,31.77
2022-11-25T07:38:11.156Z,31.08
2022-11-25T07:40:39.537Z,34.05
2022-11-25T07:43:07.161Z,32.95
2022-11-25T07:45:35.486Z,28.17
2022-11-25T07:48:08.959Z,24.85
2022-11-25T07:50:38.613Z,31.65
2022-11-25T07:53:06.568Z,42.60
2022-11-25T07:55:34.544Z,39.15
2022-11-25T07:58:02.472Z,34.00
2022-11-25T08:00:30.019Z,31.88
2022-11-25T08:02:58.069Z,32.33
2022-11-25T08:05:25.666Z,43.03
2022-11-25T08:07:53.781Z,32.42
2022-11-25T08:10:21.386Z,30.52
2022-11-25T08:12:49.312Z,31.90
2022-11-25T08:15:16.998Z,33.58
2022-11-25T08:17:44.602Z,32.72
2022-11-25T08:20:12.489Z,35.60
2022-11-25T08:22:39.985Z,36.40
2022-11-25T08:25:08.373Z,41.63
2022-11-25T08:27:35.890Z,33.67
2022-11-25T08:30:03.989Z,32.08
2022-11-25T08:32:31.759Z,38.05
2022-11-25T08:34:59.311Z,36.97
2022-11-25T08:37:26.955Z,43.70
2022-11-25T08:39:55.132Z,32.85
2022-11-25T08:42:23.567Z,36.28
2022-11-25T08:44:55.580Z,37.20
2022-11-25T08:47:23.794Z,36.10
2022-11-25T08:49:52.528Z,32.15
2022-11-25T08:52:21.530Z,34.72
2022-11-25T08:54:49.720Z,34.28
2022-11-25T08:57:17.386Z,28.45
2022-11-25T08:59:45.158Z,36.50
2022-11-25T09:02:15.774Z,24.63
2022-11-25T09:04:43.841Z,28.33
2022-11-25T09:07:11.521Z,31.63
2022-11-25T09:09:39.464Z,24.35
2022-11-25T09:12:07.398Z,23.45
2022-11-25T09:14:35.003Z,23.35
2022-11-25T09:17:03.771Z,26.35
2022-11-25T09:19:31.569Z,23.38
2022-11-25T09:21:59.072Z,23.65
2022-11-25T09:24:26.770Z,23.63
2022-11-25T09:26:54.856Z,25.67
2022-11-25T09:29:22.519Z,24.95
2022-11-25T09:31:54.786Z,22.58
2022-11-25T09:34:22.812Z,23.30
2022-11-25T09:36:50.570Z,24.23
2022-11-25T09:39:18.477Z,23.10
2022-11-25T09:42:26.503Z,21.45
2022-11-25T09:45:18.846Z,20.58
2022-11-25T09:48:14.190Z,21.40
2022-11-25T09:51:18.822Z,24.65
2022-11-25T09:54:13.387Z,17.58
2022-11-25T09:56:40.873Z,18.25
2022-11-25T09:59:18.518Z,20.70
2022-11-25T10:02:01.383Z,18.83
2022-11-25T10:04:46.871Z,22.58
2022-11-25T10:07:33.292Z,17.90
2022-11-25T10:10:04.445Z,17.75
2022-11-25T10:12:40.703Z,20.73
2022-11-25T10:15:19.065Z,17.73
2022-11-25T10:17:51.143Z,18.50
2022-11-25T10:20:26.679Z,18.67
2022-11-25T10:23:09.891Z,18.67
2022-11-25T10:25:46.098Z,29.05
2022-11-25T10:28:31.748Z,23.13
2022-11-25T10:31:18.132Z,21.38
2022-11-25T10:33:49.542Z,26.58
2022-11-25T10:36:23.118Z,24.02
2022-11-25T10:38:59.313Z,24.33
2022-11-25T10:41:36.014Z,22.40
2022-11-25T10:44:04.049Z,18.08
2022-11-25T10:47:12.216Z,19.92
2022-11-25T10:50:10.034Z,19.90
2022-11-25T10:53:03.438Z,21.42
2022-11-25T10:55:33.775Z,18.10
2022-11-25T10:58:29.144Z,19.40
2022-11-25T11:01:25.470Z,20.10
2022-11-25T11:04:02.927Z,21.10
2022-11-25T11:06:36.455Z,19.02
2022-11-25T11:09:05.041Z,17.38
2022-11-25T11:11:33.345Z,17.23
2022-11-25T11:14:21.083Z,17.98
2022-11-25T11:16:57.102Z,14.38
2022-11-25T11:19:31.068Z,16.98
2022-11-25T11:22:16.596Z,18.58
2022-11-25T11:24:44.116Z,20.35
2022-11-25T11:27:25.852Z,16.30
2022-11-25T11:30:24.708Z,14.60
2022-11-25T11:33:05.386Z,12.75
2022-11-25T11:35:42.010Z,12.30
2022-11-25T11:38:19.167Z,8.43
2022-11-25T11:40:53.158Z,11.07
2022-11-25T11:43:32.683Z,6.75
2022-11-25T11:46:03.542Z,9.02
2022-11-25T11:49:03.021Z,10.65
2022-11-25T11:51:46.398Z,9.90
2022-11-25T11:54:26.203Z,9.55
2022-11-25T11:57:02.601Z,11.82
2022-11-25T11:59:40.216Z,9.27
2022-11-25T12:02:22.782Z,10.70
2022-11-25T12:05:00.401Z,12.60
2022-11-25T12:07:41.682Z,9.05
2022-11-25T12:10:15.389Z,11.32
2022-11-25T12:15:43.371Z,9.88
2022-11-25T12:18:31.644Z,11.20
2022-11-25T12:21:19.013Z,10.20
2022-11-25T12:23:59.133Z,7.85
2022-11-25T12:26:45.394Z,8.48
2022-11-25T12:29:22.022Z,10.43
2022-11-25T12:32:22.863Z,19.33
2022-11-25T12:34:59.319Z,9.60
2022-11-25T12:37:40.079Z,9.38
2022-11-25T12:40:15.128Z,9.20
2022-11-25T12:42:45.403Z,10.40
2022-11-25T12:45:22.736Z,8.10
2022-11-25T12:47:51.469Z,13.60
2022-11-25T12:50:31.766Z,10.10
2022-11-25T12:53:09.156Z,8.85
2022-11-25T12:55:39.401Z,28.05
2022-11-25T12:58:25.303Z,34.05
2022-11-25T13:01:07.227Z,8.43
2022-11-25T13:04:13.668Z,8.30
2022-11-25T13:06:44.307Z,12.30
2022-11-25T13:09:23.913Z,9.98
2022-11-25T13:12:30.407Z,8.70
2022-11-25T13:15:23.804Z,11.38
2022-11-25T13:17:57.657Z,14.60
2022-11-25T13:20:28.075Z,12.93
2022-11-25T13:23:08.225Z,15.52
2022-11-25T13:25:37.933Z,98.03
2022-11-25T13:28:25.055Z,32.90
2022-11-25T13:30:53.578Z,14.80
2022-11-25T13:33:24.448Z,17.17
2022-11-25T13:35:56.098Z,8.90
2022-11-25T13:38:29.665Z,10.68
2022-11-25T13:41:22.903Z,12.35
2022-11-25T13:43:53.878Z,17.27
2022-11-25T13:46:42.323Z,9.45
2022-11-25T13:49:50.379Z,9.68
2022-11-25T13:52:18.673Z,8.88
2022-11-25T13:54:55.701Z,9.13
2022-11-25T13:57:30.462Z,12.13
2022-11-25T14:00:10.301Z,10.63
2022-11-25T14:02:49.680Z,9.93
2022-11-25T14:05:58.381Z,11.88
2022-11-25T14:08:59.888Z,9.85
2022-11-25T14:11:37.281Z,12.38
2022-11-25T14:14:12.391Z,11.55
2022-11-25T14:16:58.912Z,12.63
2022-11-25T14:19:58.403Z,11.85
2022-11-25T14:22:45.380Z,11.05
2022-11-25T14:25:13.246Z,15.70
2022-11-25T14:27:48.018Z,11.38
2022-11-25T14:30:17.773Z,15.52
2022-11-25T14:32:57.771Z,13.02
2022-11-25T14:35:40.159Z,13.27
2022-11-25T14:38:20.959Z,14.40
2022-11-25T14:41:32.996Z,12.50
2022-11-25T14:44:13.259Z,19.27
2022-11-25T14:47:03.998Z,13.07
2022-11-25T14:50:05.284Z,21.48
2022-11-25T14:52:37.384Z,15.65
2022-11-25T14:55:07.151Z,18.52
2022-11-25T14:57:38.642Z,17.45
2022-11-25T15:00:09.469Z,31.73
2022-11-25T15:02:41.882Z,21.90
2022-11-25T15:05:22.679Z,20.92
2022-11-25T15:08:15.653Z,23.95
2022-11-25T15:10:59.266Z,18.60
2022-11-25T15:13:39.286Z,18.52
2022-11-25T15:16:16.131Z,21.73
2022-11-25T15:18:49.715Z,23.58
2022-11-25T15:21:21.495Z,20.77
2022-11-25T15:23:49.297Z,24.85
2022-11-25T15:26:22.802Z,23.05
2022-11-25T15:29:10.939Z,19.80
2022-11-25T15:31:42.082Z,24.48
2022-11-25T15:34:14.699Z,25.88
2022-11-25T15:36:42.320Z,24.58
2022-11-25T15:39:20.444Z,21.02
2022-11-25T15:41:50.167Z,24.67
2022-11-25T15:44:33.552Z,29.85
2022-11-25T15:47:07.863Z,25.20
2022-11-25T15:49:36.257Z,23.52
2022-11-25T15:52:09.804Z,35.13
2022-11-25T15:54:47.101Z,30.77
2022-11-25T15:57:27.475Z,29.20
2022-11-25T15:59:55.518Z,36.03
2022-11-25T16:02:34.227Z,31.23
2022-11-25T16:05:14.305Z,29.33
2022-11-25T16:07:53.983Z,32.83
2022-11-25T16:10:26.414Z,35.70
2022-11-25T16:13:22.085Z,35.55
2022-11-25T16:15:59.506Z,28.65
2022-11-25T16:18:52.497Z,29.20
2022-11-25T16:21:54.838Z,26.80
2022-11-25T16:24:36.224Z,34.88
2022-11-25T16:27:26.188Z,27.50
2022-11-25T16:29:58.083Z,29.75
2022-11-25T16:32:29.467Z,29.20
2022-11-25T16:35:06.195Z,31.02
2022-11-25T16:37:33.701Z,31.75
2022-11-25T16:40:02.182Z,30.17
2022-11-25T16:42:29.886Z,43.00
2022-11-25T16:44:57.407Z,38.00
2022-11-25T16:47:26.570Z,42.08
2022-11-25T16:49:54.098Z,33.50
2022-11-25T16:52:22.783Z,37.85
2022-11-25T16:54:50.848Z,34.90
2022-11-25T16:57:21.952Z,33.85
2022-11-25T16:59:55.792Z,39.75
2022-11-25T17:02:26.299Z,47.72
2022-11-25T17:04:54.071Z,47.17
2022-11-25T17:07:38.369Z,38.20
2022-11-25T17:10:07.139Z,41.25
2022-11-25T17:12:36.506Z,50.67
2022-11-25T17:15:08.241Z,42.63
2022-11-25T17:17:36.370Z,34.55
2022-11-25T17:20:05.611Z,37.55
2022-11-25T17:22:37.773Z,38.92
2022-11-25T17:27:36.069Z,40.20
2022-11-25T17:30:06.597Z,40.95
2022-11-25T17:32:34.987Z,53.72
2022-11-25T17:35:02.513Z,42.17
2022-11-25T17:37:31.177Z,45.90
2022-11-25T17:39:58.765Z,39.00
2022-11-25T17:42:33.062Z,45.22
2022-11-25T17:45:01.106Z,37.78
2022-11-25T17:47:28.605Z,31.80
2022-11-25T17:49:57.876Z,30.23
2022-11-25T17:52:25.490Z,35.83
2022-11-25T17:54:53.503Z,36.72
2022-11-25T17:57:22.020Z,35.97
2022-11-25T17:59:50.031Z,34.78
2022-11-25T18:02:20.028Z,34.50
2022-11-25T18:04:48.855Z,35.70
2022-11-25T18:07:16.798Z,30.17
2022-11-25T18:09:45.596Z,39.85
2022-11-25T18:12:29.133Z,38.22
2022-11-25T18:14:57.339Z,34.40
2022-11-25T18:17:25.058Z,31.60
2022-11-25T18:19:55.240Z,32.13
2022-11-25T18:22:24.204Z,37.90
2022-11-25T18:24:52.758Z,42.35
2022-11-25T18:27:27.201Z,36.72
2022-11-25T18:29:56.529Z,37.20
2022-11-25T18:32:26.032Z,34.78
2022-11-25T18:34:53.801Z,40.45
2022-11-25T18:37:21.748Z,41.90
2022-11-25T18:39:49.380Z,42.92
2022-11-25T18:42:27.691Z,38.08
2022-11-25T18:44:56.130Z,38.42
2022-11-25T18:47:24.433Z,42.88
2022-11-25T18:49:55.771Z,36.67
2022-11-25T18:52:25.057Z,35.97
2022-11-25T18:54:53.081Z,41.88
2022-11-25T18:57:20.734Z,40.95
2022-11-25T19:00:00.260Z,43.92
2022-11-25T19:02:37.026Z,38.53
2022-11-25T19:05:32.723Z,49.67
2022-11-25T19:08:01.089Z,36.17
2022-11-25T19:10:32.173Z,42.67
2022-11-25T19:13:03.492Z,44.20
2022-11-25T19:15:31.247Z,45.08
2022-11-25T19:18:02.857Z,47.03
2022-11-25T19:20:31.585Z,43.72
2022-11-25T19:23:01.532Z,42.33
2022-11-25T19:25:29.843Z,40.83
2022-11-25T19:27:59.804Z,49.78
2022-11-25T19:30:31.207Z,42.45
2022-11-25T19:33:01.640Z,47.50
2022-11-25T19:35:35.896Z,44.78
2022-11-25T19:38:14.155Z,54.08
2022-11-25T19:40:41.912Z,44.05
2022-11-25T19:43:09.560Z,49.50
2022-11-25T19:45:37.630Z,48.75
2022-11-25T19:48:13.985Z,45.05
2022-11-25T19:50:43.844Z,49.20
2022-11-25T19:53:17.872Z,49.28
2022-11-25T19:55:47.314Z,44.90
2022-11-25T19:58:15.998Z,46.28
2022-11-25T20:00:47.521Z,51.45
2022-11-25T20:03:24.489Z,49.72
2022-11-25T20:05:54.756Z,48.42
2022-11-25T20:08:27.767Z,48.80
2022-11-25T20:10:56.577Z,52.63
2022-11-25T20:13:26.202Z,52.95
2022-11-25T20:15:55.987Z,57.38
2022-11-25T20:18:26.402Z,55.40
2022-11-25T20:21:06.152Z,50.63
2022-11-25T20:23:43.355Z,50.40
2022-11-25T20:26:26.282Z,40.67
2022-11-25T20:28:54.773Z,48.80
2022-11-25T20:31:25.183Z,55.50
2022-11-25T20:33:56.793Z,47.25
2022-11-25T20:36:31.259Z,56.10
2022-11-25T20:39:01.970Z,53.38
2022-11-25T20:41:30.511Z,52.08
2022-11-25T20:43:59.350Z,53.08
2022-11-25T20:46:30.061Z,48.08
2022-11-25T20:49:01.906Z,52.22
2022-11-25T20:51:30.434Z,54.83
2022-11-25T20:54:05.513Z,47.33
2022-11-25T20:56:34.483Z,55.30
2022-11-25T20:59:02.102Z,50.72
2022-11-25T21:01:29.696Z,48.90
2022-11-25T21:03:57.329Z,46.05
2022-11-25T21:06:30.203Z,57.65
2022-11-25T21:09:01.061Z,52.65
2022-11-25T21:11:32.894Z,46.28
2022-11-25T21:14:00.538Z,48.22
2022-11-25T21:16:28.805Z,49.90
2022-11-25T21:18:56.459Z,43.83
2022-11-25T21:21:34.462Z,51.92
2022-11-25T21:24:13.396Z,48.55
2022-11-25T21:26:41.355Z,54.13
2022-11-25T21:29:13.632Z,49.38
2022-11-25T21:31:41.642Z,45.60
2022-11-25T21:34:14.143Z,46.78
2022-11-25T21:36:44.673Z,39.60
2022-11-25T21:39:28.039Z,44.58
2022-11-25T21:42:00.136Z,51.22
2022-11-25T21:44:38.839Z,45.60
2022-11-25T21:47:14.741Z,49.45
2022-11-25T21:49:42.986Z,44.67
2022-11-25T21:52:11.431Z,45.97
2022-11-25T21:54:39.863Z,53.65
2022-11-25T21:57:20.230Z,40.15
2022-11-25T21:59:48.390Z,43.65
2022-11-25T22:02:24.235Z,49.53
2022-11-25T22:04:52.519Z,46.28
2022-11-25T22:07:20.242Z,44.03
2022-11-25T22:09:47.881Z,49.22
2022-11-25T22:12:30.706Z,46.25
2022-11-25T22:15:00.604Z,46.85
2022-11-25T22:17:30.014Z,44.50
2022-11-25T22:19:57.934Z,42.08
2022-11-25T22:22:25.525Z,39.83
2022-11-25T22:24:53.706Z,36.95
2022-11-25T22:27:25.040Z,41.17
2022-11-25T22:29:53.135Z,52.92
2022-11-25T22:32:20.757Z,42.08
2022-11-25T22:34:48.771Z,39.90
2022-11-25T22:37:19.227Z,43.72
2022-11-25T22:39:47.075Z,41.83
2022-11-25T22:42:26.182Z,41.78
2022-11-25T22:44:56.255Z,40.47
2022-11-25T22:47:44.523Z,46.13
2022-11-25T22:50:19.266Z,39.78
2022-11-25T22:52:47.644Z,47.65
2022-11-25T22:55:30.134Z,38.15
2022-11-25T22:58:00.460Z,39.20
2022-11-25T23:00:37.568Z,42.20
2022-11-25T23:03:07.871Z,30.67
2022-11-25T23:05:37.371Z,33.53
2022-11-25T23:08:18.251Z,36.90
2022-11-25T23:10:47.645Z,43.22
2022-11-25T23:13:17.228Z,38.90
2022-11-25T23:15:48.624Z,44.30
2022-11-25T23:18:21.533Z,41.08
2022-11-25T23:20:49.480Z,40.07
2022-11-25T23:23:20.246Z,40.20
2022-11-25T23:25:48.778Z,42.97
2022-11-25T23:28:17.154Z,43.95
2022-11-25T23:30:56.571Z,52.25
2022-11-25T23:33:39.367Z,45.10
2022-11-25T23:36:13.218Z,45.22
2022-11-25T23:38:48.722Z,58.13
2022-11-25T23:41:31.296Z,44.63
2022-11-25T23:44:10.114Z,39.08
2022-11-25T23:46:37.767Z,43.72
2022-11-25T23:49:12.372Z,42.45
2022-11-25T23:51:40.041Z,39.05
2022-11-25T23:54:14.951Z,34.33
2022-11-25T23:56:43.308Z,41.45
2022-11-25T23:59:15.849Z,38.28
